sensor_id;sensor_type;location;lat;lon;timestamp;P1;durP1;ratioP1;P2;durP2;ratioP2
20283;SDS011;10301;50.832;4.080;2023-04-16T00:00:38;10.47;;;4.13;;
20283;SDS011;10301;50.832;4.080;2023-04-16T00:03:04;17.90;;;4.70;;
20283;SDS011;10301;50.832;4.080;2023-04-16T00:05:30;12.67;;;4.53;;
20283;SDS011;10301;50.832;4.080;2023-04-16T00:07:56;11.77;;;3.87;;
20283;SDS011;10301;50.832;4.080;2023-04-16T00:10:21;11.43;;;3.93;;
20283;SDS011;10301;50.832;4.080;2023-04-16T00:12:47;9.90;;;4.10;;
20283;SDS011;10301;50.832;4.080;2023-04-16T00:15:13;10.63;;;3.97;;
20283;SDS011;10301;50.832;4.080;2023-04-16T00:17:38;11.10;;;4.10;;
20283;SDS011;10301;50.832;4.080;2023-04-16T00:20:04;8.33;;;3.73;;
20283;SDS011;10301;50.832;4.080;2023-04-16T00:22:30;12.07;;;3.60;;
20283;SDS011;10301;50.832;4.080;2023-04-16T00:24:56;9.40;;;3.70;;
20283;SDS011;10301;50.832;4.080;2023-04-16T00:27:21;13.43;;;3.63;;
20283;SDS011;10301;50.832;4.080;2023-04-16T00:29:47;7.20;;;3.37;;
20283;SDS011;10301;50.832;4.080;2023-04-16T00:32:13;8.73;;;2.93;;
20283;SDS011;10301;50.832;4.080;2023-04-16T00:34:38;11.20;;;3.27;;
20283;SDS011;10301;50.832;4.080;2023-04-16T00:37:04;9.20;;;2.80;;
20283;SDS011;10301;50.832;4.080;2023-04-16T00:39:30;12.47;;;3.57;;
20283;SDS011;10301;50.832;4.080;2023-04-16T00:41:55;8.13;;;2.90;;
20283;SDS011;10301;50.832;4.080;2023-04-16T00:44:21;8.77;;;2.83;;
20283;SDS011;10301;50.832;4.080;2023-04-16T00:46:47;8.70;;;2.80;;
20283;SDS011;10301;50.832;4.080;2023-04-16T00:49:13;6.83;;;2.50;;
20283;SDS011;10301;50.832;4.080;2023-04-16T00:51:39;11.97;;;3.10;;
20283;SDS011;10301;50.832;4.080;2023-04-16T00:54:05;9.73;;;2.80;;
20283;SDS011;10301;50.832;4.080;2023-04-16T00:56:31;9.53;;;2.50;;
20283;SDS011;10301;50.832;4.080;2023-04-16T00:58:57;7.77;;;2.50;;
20283;SDS011;10301;50.832;4.080;2023-04-16T01:01:23;7.20;;;2.50;;
20283;SDS011;10301;50.832;4.080;2023-04-16T01:03:49;9.90;;;2.90;;
20283;SDS011;10301;50.832;4.080;2023-04-16T01:06:18;8.17;;;2.73;;
20283;SDS011;10301;50.832;4.080;2023-04-16T01:08:45;13.43;;;2.80;;
20283;SDS011;10301;50.832;4.080;2023-04-16T01:11:11;10.00;;;2.67;;
20283;SDS011;10301;50.832;4.080;2023-04-16T01:13:37;11.37;;;2.73;;
20283;SDS011;10301;50.832;4.080;2023-04-16T01:16:07;7.20;;;2.90;;
20283;SDS011;10301;50.832;4.080;2023-04-16T01:18:34;7.03;;;2.53;;
20283;SDS011;10301;50.832;4.080;2023-04-16T01:21:00;7.83;;;2.47;;
20283;SDS011;10301;50.832;4.080;2023-04-16T01:23:26;7.40;;;2.87;;
20283;SDS011;10301;50.832;4.080;2023-04-16T01:25:52;8.73;;;2.40;;
20283;SDS011;10301;50.832;4.080;2023-04-16T01:28:18;8.97;;;2.60;;
20283;SDS011;10301;50.832;4.080;2023-04-16T01:30:43;10.60;;;2.60;;
20283;SDS011;10301;50.832;4.080;2023-04-16T01:33:09;6.87;;;2.17;;
20283;SDS011;10301;50.832;4.080;2023-04-16T01:35:36;6.60;;;2.27;;
20283;SDS011;10301;50.832;4.080;2023-04-16T01:38:02;10.33;;;2.87;;
20283;SDS011;10301;50.832;4.080;2023-04-16T01:40:29;6.17;;;2.53;;
20283;SDS011;10301;50.832;4.080;2023-04-16T01:42:55;5.93;;;2.20;;
20283;SDS011;10301;50.832;4.080;2023-04-16T01:45:20;8.00;;;1.83;;
20283;SDS011;10301;50.832;4.080;2023-04-16T01:47:47;9.53;;;1.80;;
20283;SDS011;10301;50.832;4.080;2023-04-16T01:50:15;11.97;;;1.77;;
20283;SDS011;10301;50.832;4.080;2023-04-16T01:52:41;10.57;;;2.10;;
20283;SDS011;10301;50.832;4.080;2023-04-16T01:55:08;7.93;;;1.60;;
20283;SDS011;10301;50.832;4.080;2023-04-16T01:57:33;9.30;;;1.50;;
20283;SDS011;10301;50.832;4.080;2023-04-16T01:59:59;9.13;;;1.67;;
20283;SDS011;10301;50.832;4.080;2023-04-16T02:02:25;5.27;;;1.33;;
20283;SDS011;10301;50.832;4.080;2023-04-16T02:04:53;7.80;;;1.20;;
20283;SDS011;10301;50.832;4.080;2023-04-16T02:07:21;6.93;;;1.10;;
20283;SDS011;10301;50.832;4.080;2023-04-16T02:09:47;7.73;;;1.50;;
20283;SDS011;10301;50.832;4.080;2023-04-16T02:12:14;8.07;;;1.50;;
20283;SDS011;10301;50.832;4.080;2023-04-16T02:14:40;7.33;;;1.20;;
20283;SDS011;10301;50.832;4.080;2023-04-16T02:17:06;8.27;;;1.23;;
20283;SDS011;10301;50.832;4.080;2023-04-16T02:19:31;4.63;;;1.23;;
20283;SDS011;10301;50.832;4.080;2023-04-16T02:21:57;7.40;;;1.20;;
20283;SDS011;10301;50.832;4.080;2023-04-16T02:24:25;8.60;;;1.23;;
20283;SDS011;10301;50.832;4.080;2023-04-16T02:26:51;8.30;;;1.30;;
20283;SDS011;10301;50.832;4.080;2023-04-16T02:29:17;6.40;;;1.20;;
20283;SDS011;10301;50.832;4.080;2023-04-16T02:31:43;3.47;;;0.93;;
20283;SDS011;10301;50.832;4.080;2023-04-16T02:34:09;5.60;;;1.30;;
20283;SDS011;10301;50.832;4.080;2023-04-16T02:36:34;4.17;;;0.87;;
20283;SDS011;10301;50.832;4.080;2023-04-16T02:39:00;6.70;;;1.30;;
20283;SDS011;10301;50.832;4.080;2023-04-16T02:41:26;4.87;;;1.13;;
20283;SDS011;10301;50.832;4.080;2023-04-16T02:43:51;3.07;;;0.97;;
20283;SDS011;10301;50.832;4.080;2023-04-16T02:46:17;5.03;;;1.10;;
20283;SDS011;10301;50.832;4.080;2023-04-16T02:48:43;4.53;;;1.13;;
20283;SDS011;10301;50.832;4.080;2023-04-16T02:51:08;8.70;;;1.20;;
20283;SDS011;10301;50.832;4.080;2023-04-16T02:53:34;6.67;;;1.10;;
20283;SDS011;10301;50.832;4.080;2023-04-16T02:56:00;9.87;;;1.30;;
20283;SDS011;10301;50.832;4.080;2023-04-16T02:58:25;6.13;;;1.10;;
20283;SDS011;10301;50.832;4.080;2023-04-16T03:00:52;8.90;;;1.37;;
20283;SDS011;10301;50.832;4.080;2023-04-16T03:03:18;5.67;;;1.40;;
20283;SDS011;10301;50.832;4.080;2023-04-16T03:05:45;5.37;;;1.07;;
20283;SDS011;10301;50.832;4.080;2023-04-16T03:08:11;8.80;;;1.90;;
20283;SDS011;10301;50.832;4.080;2023-04-16T03:10:37;9.10;;;1.63;;
20283;SDS011;10301;50.832;4.080;2023-04-16T03:13:03;7.70;;;1.60;;
20283;SDS011;10301;50.832;4.080;2023-04-16T03:15:29;6.43;;;1.50;;
20283;SDS011;10301;50.832;4.080;2023-04-16T03:17:55;5.27;;;1.43;;
20283;SDS011;10301;50.832;4.080;2023-04-16T03:20:21;8.13;;;1.50;;
20283;SDS011;10301;50.832;4.080;2023-04-16T03:22:48;7.17;;;1.77;;
20283;SDS011;10301;50.832;4.080;2023-04-16T03:25:14;10.23;;;2.20;;
20283;SDS011;10301;50.832;4.080;2023-04-16T03:27:39;8.77;;;1.93;;
20283;SDS011;10301;50.832;4.080;2023-04-16T03:30:06;10.87;;;1.90;;
20283;SDS011;10301;50.832;4.080;2023-04-16T03:32:32;6.47;;;1.87;;
20283;SDS011;10301;50.832;4.080;2023-04-16T03:34:58;10.47;;;2.33;;
20283;SDS011;10301;50.832;4.080;2023-04-16T03:37:23;7.60;;;2.03;;
20283;SDS011;10301;50.832;4.080;2023-04-16T03:39:49;9.27;;;1.53;;
20283;SDS011;10301;50.832;4.080;2023-04-16T03:42:15;7.97;;;1.87;;
20283;SDS011;10301;50.832;4.080;2023-04-16T03:44:41;6.60;;;1.87;;
20283;SDS011;10301;50.832;4.080;2023-04-16T03:47:06;8.97;;;1.87;;
20283;SDS011;10301;50.832;4.080;2023-04-16T03:49:32;6.93;;;1.93;;
20283;SDS011;10301;50.832;4.080;2023-04-16T03:51:58;7.27;;;1.90;;
20283;SDS011;10301;50.832;4.080;2023-04-16T03:54:23;5.43;;;1.80;;
20283;SDS011;10301;50.832;4.080;2023-04-16T03:56:49;9.80;;;2.10;;
20283;SDS011;10301;50.832;4.080;2023-04-16T03:59:16;9.53;;;2.13;;
20283;SDS011;10301;50.832;4.080;2023-04-16T04:01:41;8.53;;;2.00;;
20283;SDS011;10301;50.832;4.080;2023-04-16T04:04:07;8.37;;;2.40;;
20283;SDS011;10301;50.832;4.080;2023-04-16T04:06:33;6.67;;;2.00;;
20283;SDS011;10301;50.832;4.080;2023-04-16T04:08:59;9.43;;;1.73;;
20283;SDS011;10301;50.832;4.080;2023-04-16T04:11:25;11.17;;;1.70;;
20283;SDS011;10301;50.832;4.080;2023-04-16T04:13:50;5.03;;;1.67;;
20283;SDS011;10301;50.832;4.080;2023-04-16T04:16:16;7.40;;;1.50;;
20283;SDS011;10301;50.832;4.080;2023-04-16T04:18:42;6.43;;;1.70;;
20283;SDS011;10301;50.832;4.080;2023-04-16T04:21:07;8.03;;;1.70;;
20283;SDS011;10301;50.832;4.080;2023-04-16T04:23:34;5.33;;;1.30;;
20283;SDS011;10301;50.832;4.080;2023-04-16T04:26:00;10.20;;;1.97;;
20283;SDS011;10301;50.832;4.080;2023-04-16T04:28:28;8.70;;;2.03;;
20283;SDS011;10301;50.832;4.080;2023-04-16T04:30:54;12.27;;;2.00;;
20283;SDS011;10301;50.832;4.080;2023-04-16T04:33:21;8.73;;;1.67;;
20283;SDS011;10301;50.832;4.080;2023-04-16T04:35:47;5.27;;;2.00;;
20283;SDS011;10301;50.832;4.080;2023-04-16T04:38:12;11.30;;;2.27;;
20283;SDS011;10301;50.832;4.080;2023-04-16T04:40:38;8.40;;;1.97;;
20283;SDS011;10301;50.832;4.080;2023-04-16T04:43:03;7.63;;;2.07;;
20283;SDS011;10301;50.832;4.080;2023-04-16T04:45:29;8.17;;;1.80;;
20283;SDS011;10301;50.832;4.080;2023-04-16T04:47:55;6.60;;;1.80;;
20283;SDS011;10301;50.832;4.080;2023-04-16T04:50:20;6.20;;;2.40;;
20283;SDS011;10301;50.832;4.080;2023-04-16T04:52:47;6.30;;;2.03;;
20283;SDS011;10301;50.832;4.080;2023-04-16T04:55:13;7.90;;;2.43;;
20283;SDS011;10301;50.832;4.080;2023-04-16T04:57:40;9.17;;;2.03;;
20283;SDS011;10301;50.832;4.080;2023-04-16T05:00:06;11.20;;;2.43;;
20283;SDS011;10301;50.832;4.080;2023-04-16T05:02:32;8.17;;;2.13;;
20283;SDS011;10301;50.832;4.080;2023-04-16T05:04:57;5.47;;;2.03;;
20283;SDS011;10301;50.832;4.080;2023-04-16T05:07:23;7.27;;;2.03;;
20283;SDS011;10301;50.832;4.080;2023-04-16T05:09:49;6.37;;;1.93;;
20283;SDS011;10301;50.832;4.080;2023-04-16T05:12:15;8.50;;;2.13;;
20283;SDS011;10301;50.832;4.080;2023-04-16T05:14:41;6.33;;;1.67;;
20283;SDS011;10301;50.832;4.080;2023-04-16T05:17:07;8.60;;;1.93;;
20283;SDS011;10301;50.832;4.080;2023-04-16T05:19:34;9.60;;;2.17;;
20283;SDS011;10301;50.832;4.080;2023-04-16T05:22:00;9.27;;;2.27;;
20283;SDS011;10301;50.832;4.080;2023-04-16T05:24:26;5.20;;;2.00;;
20283;SDS011;10301;50.832;4.080;2023-04-16T05:26:52;7.90;;;2.07;;
20283;SDS011;10301;50.832;4.080;2023-04-16T05:29:18;9.53;;;2.40;;
20283;SDS011;10301;50.832;4.080;2023-04-16T05:31:44;7.87;;;2.23;;
20283;SDS011;10301;50.832;4.080;2023-04-16T05:34:09;10.27;;;2.10;;
20283;SDS011;10301;50.832;4.080;2023-04-16T05:36:35;8.03;;;2.10;;
20283;SDS011;10301;50.832;4.080;2023-04-16T05:39:01;8.00;;;2.40;;
20283;SDS011;10301;50.832;4.080;2023-04-16T05:41:27;7.53;;;2.30;;
20283;SDS011;10301;50.832;4.080;2023-04-16T05:43:52;8.67;;;2.00;;
20283;SDS011;10301;50.832;4.080;2023-04-16T05:46:18;10.40;;;2.50;;
20283;SDS011;10301;50.832;4.080;2023-04-16T05:48:43;5.73;;;2.27;;
20283;SDS011;10301;50.832;4.080;2023-04-16T05:51:10;7.00;;;2.63;;
20283;SDS011;10301;50.832;4.080;2023-04-16T05:53:35;7.10;;;1.97;;
20283;SDS011;10301;50.832;4.080;2023-04-16T05:56:01;6.37;;;2.60;;
20283;SDS011;10301;50.832;4.080;2023-04-16T05:58:27;7.40;;;2.40;;
20283;SDS011;10301;50.832;4.080;2023-04-16T06:00:52;8.13;;;2.80;;
20283;SDS011;10301;50.832;4.080;2023-04-16T06:03:18;6.63;;;2.53;;
20283;SDS011;10301;50.832;4.080;2023-04-16T06:05:44;9.27;;;2.70;;
20283;SDS011;10301;50.832;4.080;2023-04-16T06:08:09;6.63;;;2.40;;
20283;SDS011;10301;50.832;4.080;2023-04-16T06:10:35;9.40;;;2.67;;
20283;SDS011;10301;50.832;4.080;2023-04-16T06:13:01;7.40;;;2.50;;
20283;SDS011;10301;50.832;4.080;2023-04-16T06:15:27;8.13;;;2.20;;
20283;SDS011;10301;50.832;4.080;2023-04-16T06:17:53;7.73;;;2.50;;
20283;SDS011;10301;50.832;4.080;2023-04-16T06:20:18;7.30;;;2.90;;
20283;SDS011;10301;50.832;4.080;2023-04-16T06:22:44;9.27;;;2.47;;
20283;SDS011;10301;50.832;4.080;2023-04-16T06:25:10;9.17;;;2.73;;
20283;SDS011;10301;50.832;4.080;2023-04-16T06:27:35;8.50;;;2.87;;
20283;SDS011;10301;50.832;4.080;2023-04-16T06:30:01;10.83;;;3.03;;
20283;SDS011;10301;50.832;4.080;2023-04-16T06:32:27;9.87;;;2.60;;
20283;SDS011;10301;50.832;4.080;2023-04-16T06:34:52;10.07;;;3.10;;
20283;SDS011;10301;50.832;4.080;2023-04-16T06:37:18;8.60;;;2.97;;
20283;SDS011;10301;50.832;4.080;2023-04-16T06:39:44;11.33;;;3.37;;
20283;SDS011;10301;50.832;4.080;2023-04-16T06:42:09;11.80;;;3.00;;
20283;SDS011;10301;50.832;4.080;2023-04-16T06:44:35;6.50;;;2.70;;
20283;SDS011;10301;50.832;4.080;2023-04-16T06:47:01;6.30;;;3.23;;
20283;SDS011;10301;50.832;4.080;2023-04-16T06:49:26;9.10;;;3.10;;
20283;SDS011;10301;50.832;4.080;2023-04-16T06:51:52;8.53;;;3.53;;
20283;SDS011;10301;50.832;4.080;2023-04-16T06:54:18;10.60;;;3.70;;
20283;SDS011;10301;50.832;4.080;2023-04-16T06:56:43;9.03;;;3.77;;
20283;SDS011;10301;50.832;4.080;2023-04-16T06:59:09;7.80;;;3.10;;
20283;SDS011;10301;50.832;4.080;2023-04-16T07:01:35;9.23;;;3.57;;
20283;SDS011;10301;50.832;4.080;2023-04-16T07:04:01;12.70;;;3.30;;
20283;SDS011;10301;50.832;4.080;2023-04-16T07:06:27;9.47;;;3.23;;
20283;SDS011;10301;50.832;4.080;2023-04-16T07:08:53;11.07;;;2.97;;
20283;SDS011;10301;50.832;4.080;2023-04-16T07:11:18;11.93;;;3.47;;
20283;SDS011;10301;50.832;4.080;2023-04-16T07:13:44;8.93;;;3.57;;
20283;SDS011;10301;50.832;4.080;2023-04-16T07:16:10;7.97;;;3.40;;
20283;SDS011;10301;50.832;4.080;2023-04-16T07:18:36;13.20;;;2.97;;
20283;SDS011;10301;50.832;4.080;2023-04-16T07:21:01;7.03;;;3.23;;
20283;SDS011;10301;50.832;4.080;2023-04-16T07:23:28;11.70;;;3.73;;
20283;SDS011;10301;50.832;4.080;2023-04-16T07:25:54;9.63;;;4.20;;
20283;SDS011;10301;50.832;4.080;2023-04-16T07:28:20;13.37;;;4.43;;
20283;SDS011;10301;50.832;4.080;2023-04-16T07:30:46;8.17;;;4.03;;
20283;SDS011;10301;50.832;4.080;2023-04-16T07:33:11;7.37;;;3.90;;
20283;SDS011;10301;50.832;4.080;2023-04-16T07:35:37;13.23;;;3.77;;
20283;SDS011;10301;50.832;4.080;2023-04-16T07:38:03;9.77;;;3.40;;
20283;SDS011;10301;50.832;4.080;2023-04-16T07:40:28;10.60;;;3.93;;
20283;SDS011;10301;50.832;4.080;2023-04-16T07:42:54;9.83;;;3.57;;
20283;SDS011;10301;50.832;4.080;2023-04-16T07:45:20;13.90;;;5.30;;
20283;SDS011;10301;50.832;4.080;2023-04-16T07:47:47;10.13;;;3.70;;
20283;SDS011;10301;50.832;4.080;2023-04-16T07:50:13;10.80;;;4.70;;
20283;SDS011;10301;50.832;4.080;2023-04-16T07:52:40;13.97;;;4.43;;
20283;SDS011;10301;50.832;4.080;2023-04-16T07:55:07;15.53;;;4.20;;
20283;SDS011;10301;50.832;4.080;2023-04-16T07:57:33;10.13;;;4.10;;
20283;SDS011;10301;50.832;4.080;2023-04-16T07:59:59;12.60;;;4.83;;
20283;SDS011;10301;50.832;4.080;2023-04-16T08:02:31;10.30;;;4.13;;
20283;SDS011;10301;50.832;4.080;2023-04-16T08:04:57;8.50;;;3.70;;
20283;SDS011;10301;50.832;4.080;2023-04-16T08:07:23;11.17;;;4.47;;
20283;SDS011;10301;50.832;4.080;2023-04-16T08:09:52;7.97;;;4.00;;
20283;SDS011;10301;50.832;4.080;2023-04-16T08:12:18;10.60;;;4.23;;
20283;SDS011;10301;50.832;4.080;2023-04-16T08:14:45;8.00;;;3.50;;
20283;SDS011;10301;50.832;4.080;2023-04-16T08:17:11;9.67;;;3.80;;
20283;SDS011;10301;50.832;4.080;2023-04-16T08:19:37;13.33;;;4.47;;
20283;SDS011;10301;50.832;4.080;2023-04-16T08:22:03;12.37;;;4.73;;
20283;SDS011;10301;50.832;4.080;2023-04-16T08:24:29;11.53;;;3.63;;
20283;SDS011;10301;50.832;4.080;2023-04-16T08:26:54;13.80;;;4.27;;
20283;SDS011;10301;50.832;4.080;2023-04-16T08:29:20;9.63;;;3.40;;
20283;SDS011;10301;50.832;4.080;2023-04-16T08:31:46;8.73;;;3.50;;
20283;SDS011;10301;50.832;4.080;2023-04-16T08:34:11;8.03;;;3.97;;
20283;SDS011;10301;50.832;4.080;2023-04-16T08:36:38;9.90;;;3.90;;
20283;SDS011;10301;50.832;4.080;2023-04-16T08:39:04;10.20;;;4.10;;
20283;SDS011;10301;50.832;4.080;2023-04-16T08:41:31;10.33;;;4.40;;
20283;SDS011;10301;50.832;4.080;2023-04-16T08:44:01;9.43;;;4.10;;
20283;SDS011;10301;50.832;4.080;2023-04-16T08:46:33;9.73;;;3.83;;
20283;SDS011;10301;50.832;4.080;2023-04-16T08:49:01;10.93;;;4.07;;
20283;SDS011;10301;50.832;4.080;2023-04-16T08:51:32;10.97;;;4.10;;
20283;SDS011;10301;50.832;4.080;2023-04-16T08:54:03;12.47;;;4.17;;
20283;SDS011;10301;50.832;4.080;2023-04-16T08:56:32;12.07;;;4.33;;
20283;SDS011;10301;50.832;4.080;2023-04-16T08:59:01;13.97;;;4.97;;
20283;SDS011;10301;50.832;4.080;2023-04-16T09:01:30;12.60;;;4.47;;
20283;SDS011;10301;50.832;4.080;2023-04-16T09:03:57;9.63;;;4.63;;
20283;SDS011;10301;50.832;4.080;2023-04-16T09:06:27;10.17;;;5.00;;
20283;SDS011;10301;50.832;4.080;2023-04-16T09:08:53;8.57;;;4.70;;
20283;SDS011;10301;50.832;4.080;2023-04-16T09:11:20;11.67;;;4.33;;
20283;SDS011;10301;50.832;4.080;2023-04-16T09:13:46;11.70;;;4.40;;
20283;SDS011;10301;50.832;4.080;2023-04-16T09:16:12;10.50;;;4.23;;
20283;SDS011;10301;50.832;4.080;2023-04-16T09:18:38;9.67;;;4.47;;
20283;SDS011;10301;50.832;4.080;2023-04-16T09:21:04;9.20;;;4.30;;
20283;SDS011;10301;50.832;4.080;2023-04-16T09:23:31;11.23;;;4.80;;
20283;SDS011;10301;50.832;4.080;2023-04-16T09:25:57;8.60;;;4.80;;
20283;SDS011;10301;50.832;4.080;2023-04-16T09:28:39;9.50;;;4.33;;
20283;SDS011;10301;50.832;4.080;2023-04-16T09:31:06;10.33;;;4.70;;
20283;SDS011;10301;50.832;4.080;2023-04-16T09:33:43;10.60;;;5.00;;
20283;SDS011;10301;50.832;4.080;2023-04-16T09:36:25;10.03;;;4.60;;
20283;SDS011;10301;50.832;4.080;2023-04-16T09:38:52;10.93;;;4.93;;
20283;SDS011;10301;50.832;4.080;2023-04-16T09:41:18;10.17;;;5.07;;
20283;SDS011;10301;50.832;4.080;2023-04-16T09:43:55;7.87;;;4.07;;
20283;SDS011;10301;50.832;4.080;2023-04-16T09:46:21;10.37;;;4.80;;
20283;SDS011;10301;50.832;4.080;2023-04-16T09:48:48;10.13;;;4.73;;
20283;SDS011;10301;50.832;4.080;2023-04-16T09:51:13;10.00;;;4.93;;
20283;SDS011;10301;50.832;4.080;2023-04-16T09:53:39;13.47;;;4.73;;
20283;SDS011;10301;50.832;4.080;2023-04-16T09:56:05;8.60;;;4.07;;
20283;SDS011;10301;50.832;4.080;2023-04-16T09:58:31;11.80;;;4.50;;
20283;SDS011;10301;50.832;4.080;2023-04-16T10:03:29;11.20;;;4.70;;
20283;SDS011;10301;50.832;4.080;2023-04-16T10:06:17;7.43;;;4.13;;
20283;SDS011;10301;50.832;4.080;2023-04-16T10:08:50;12.57;;;4.60;;
20283;SDS011;10301;50.832;4.080;2023-04-16T10:11:18;9.83;;;4.60;;
20283;SDS011;10301;50.832;4.080;2023-04-16T10:13:44;13.60;;;4.87;;
20283;SDS011;10301;50.832;4.080;2023-04-16T10:16:10;9.80;;;4.67;;
20283;SDS011;10301;50.832;4.080;2023-04-16T10:18:37;11.03;;;5.00;;
20283;SDS011;10301;50.832;4.080;2023-04-16T10:21:04;11.40;;;4.90;;
20283;SDS011;10301;50.832;4.080;2023-04-16T10:23:31;11.67;;;5.30;;
20283;SDS011;10301;50.832;4.080;2023-04-16T10:25:57;10.23;;;5.10;;
20283;SDS011;10301;50.832;4.080;2023-04-16T10:28:25;8.63;;;5.17;;
20283;SDS011;10301;50.832;4.080;2023-04-16T10:30:53;10.63;;;5.03;;
20283;SDS011;10301;50.832;4.080;2023-04-16T10:33:39;12.37;;;5.00;;
20283;SDS011;10301;50.832;4.080;2023-04-16T10:36:12;10.03;;;5.10;;
20283;SDS011;10301;50.832;4.080;2023-04-16T10:38:49;12.27;;;5.47;;
20283;SDS011;10301;50.832;4.080;2023-04-16T10:41:17;9.97;;;5.03;;
20283;SDS011;10301;50.832;4.080;2023-04-16T10:43:48;14.13;;;5.60;;
20283;SDS011;10301;50.832;4.080;2023-04-16T10:46:22;14.07;;;5.50;;
20283;SDS011;10301;50.832;4.080;2023-04-16T10:48:48;10.90;;;5.87;;
20283;SDS011;10301;50.832;4.080;2023-04-16T10:51:26;10.47;;;5.57;;
20283;SDS011;10301;50.832;4.080;2023-04-16T10:53:53;15.70;;;7.87;;
20283;SDS011;10301;50.832;4.080;2023-04-16T10:56:24;20.13;;;6.90;;
20283;SDS011;10301;50.832;4.080;2023-04-16T10:58:54;15.70;;;5.80;;
20283;SDS011;10301;50.832;4.080;2023-04-16T11:01:26;13.67;;;5.40;;
20283;SDS011;10301;50.832;4.080;2023-04-16T11:04:24;17.17;;;5.97;;
20283;SDS011;10301;50.832;4.080;2023-04-16T11:12:36;11.23;;;5.20;;
20283;SDS011;10301;50.832;4.080;2023-04-16T11:15:04;11.17;;;5.17;;
20283;SDS011;10301;50.832;4.080;2023-04-16T11:17:38;10.50;;;4.82;;
20283;SDS011;10301;50.832;4.080;2023-04-16T11:20:09;11.25;;;6.03;;
20283;SDS011;10301;50.832;4.080;2023-04-16T11:22:41;14.35;;;5.70;;
20283;SDS011;10301;50.832;4.080;2023-04-16T11:25:07;8.32;;;4.80;;
20283;SDS011;10301;50.832;4.080;2023-04-16T11:27:33;12.52;;;5.47;;
20283;SDS011;10301;50.832;4.080;2023-04-16T11:29:59;11.73;;;4.90;;
20283;SDS011;10301;50.832;4.080;2023-04-16T11:32:29;8.35;;;4.63;;
20283;SDS011;10301;50.832;4.080;2023-04-16T11:34:59;10.60;;;5.43;;
20283;SDS011;10301;50.832;4.080;2023-04-16T11:37:36;11.97;;;5.50;;
20283;SDS011;10301;50.832;4.080;2023-04-16T11:40:02;13.18;;;5.85;;
20283;SDS011;10301;50.832;4.080;2023-04-16T11:42:31;14.30;;;5.63;;
20283;SDS011;10301;50.832;4.080;2023-04-16T11:44:58;10.20;;;5.32;;
20283;SDS011;10301;50.832;4.080;2023-04-16T11:47:25;12.18;;;5.13;;
20283;SDS011;10301;50.832;4.080;2023-04-16T11:49:51;14.00;;;4.93;;
20283;SDS011;10301;50.832;4.080;2023-04-16T11:52:30;12.38;;;5.40;;
20283;SDS011;10301;50.832;4.080;2023-04-16T11:54:57;13.75;;;5.65;;
20283;SDS011;10301;50.832;4.080;2023-04-16T11:57:24;13.05;;;5.40;;
20283;SDS011;10301;50.832;4.080;2023-04-16T11:59:54;12.95;;;4.90;;
20283;SDS011;10301;50.832;4.080;2023-04-16T12:02:33;14.68;;;5.88;;
20283;SDS011;10301;50.832;4.080;2023-04-16T12:05:00;13.80;;;5.90;;
20283;SDS011;10301;50.832;4.080;2023-04-16T12:07:27;11.73;;;5.10;;
20283;SDS011;10301;50.832;4.080;2023-04-16T12:10:03;12.93;;;5.57;;
20283;SDS011;10301;50.832;4.080;2023-04-16T12:12:33;12.48;;;5.20;;
20283;SDS011;10301;50.832;4.080;2023-04-16T12:14:59;15.93;;;5.28;;
20283;SDS011;10301;50.832;4.080;2023-04-16T12:17:32;11.23;;;6.00;;
20283;SDS011;10301;50.832;4.080;2023-04-16T12:20:09;13.77;;;6.07;;
20283;SDS011;10301;50.832;4.080;2023-04-16T12:22:39;16.15;;;5.95;;
20283;SDS011;10301;50.832;4.080;2023-04-16T12:25:15;12.15;;;5.68;;
20283;SDS011;10301;50.832;4.080;2023-04-16T12:27:45;12.20;;;5.18;;
20283;SDS011;10301;50.832;4.080;2023-04-16T12:30:19;10.98;;;4.97;;
20283;SDS011;10301;50.832;4.080;2023-04-16T12:32:49;11.88;;;5.40;;
20283;SDS011;10301;50.832;4.080;2023-04-16T12:35:28;13.27;;;6.28;;
20283;SDS011;10301;50.832;4.080;2023-04-16T12:37:55;14.82;;;5.70;;
20283;SDS011;10301;50.832;4.080;2023-04-16T12:40:21;12.80;;;6.57;;
20283;SDS011;10301;50.832;4.080;2023-04-16T12:42:47;12.35;;;5.60;;
20283;SDS011;10301;50.832;4.080;2023-04-16T12:45:12;11.57;;;5.85;;
20283;SDS011;10301;50.832;4.080;2023-04-16T12:47:38;15.98;;;6.05;;
20283;SDS011;10301;50.832;4.080;2023-04-16T12:50:04;14.15;;;6.18;;
20283;SDS011;10301;50.832;4.080;2023-04-16T12:52:30;9.25;;;5.20;;
20283;SDS011;10301;50.832;4.080;2023-04-16T12:54:55;11.20;;;5.45;;
20283;SDS011;10301;50.832;4.080;2023-04-16T12:57:21;20.48;;;6.47;;
20283;SDS011;10301;50.832;4.080;2023-04-16T12:59:52;14.88;;;5.72;;
20283;SDS011;10301;50.832;4.080;2023-04-16T13:02:19;10.88;;;6.43;;
20283;SDS011;10301;50.832;4.080;2023-04-16T13:04:45;12.02;;;5.75;;
20283;SDS011;10301;50.832;4.080;2023-04-16T13:07:10;15.30;;;5.63;;
20283;SDS011;10301;50.832;4.080;2023-04-16T13:09:36;15.60;;;5.50;;
20283;SDS011;10301;50.832;4.080;2023-04-16T13:12:02;16.63;;;6.13;;
20283;SDS011;10301;50.832;4.080;2023-04-16T13:14:28;13.02;;;5.63;;
20283;SDS011;10301;50.832;4.080;2023-04-16T13:16:53;11.68;;;5.40;;
20283;SDS011;10301;50.832;4.080;2023-04-16T13:19:19;11.13;;;5.10;;
20283;SDS011;10301;50.832;4.080;2023-04-16T13:21:45;11.82;;;5.43;;
20283;SDS011;10301;50.832;4.080;2023-04-16T13:24:11;9.48;;;4.97;;
20283;SDS011;10301;50.832;4.080;2023-04-16T13:26:36;11.25;;;5.43;;
20283;SDS011;10301;50.832;4.080;2023-04-16T13:29:02;13.07;;;6.70;;
20283;SDS011;10301;50.832;4.080;2023-04-16T13:31:27;10.93;;;5.38;;
20283;SDS011;10301;50.832;4.080;2023-04-16T13:33:53;13.13;;;5.63;;
20283;SDS011;10301;50.832;4.080;2023-04-16T13:36:19;11.57;;;5.75;;
20283;SDS011;10301;50.832;4.080;2023-04-16T13:38:45;12.65;;;5.78;;
20283;SDS011;10301;50.832;4.080;2023-04-16T13:41:10;11.50;;;5.95;;
20283;SDS011;10301;50.832;4.080;2023-04-16T13:43:36;11.45;;;6.47;;
20283;SDS011;10301;50.832;4.080;2023-04-16T13:46:02;14.55;;;7.43;;
20283;SDS011;10301;50.832;4.080;2023-04-16T13:48:34;14.10;;;6.80;;
20283;SDS011;10301;50.832;4.080;2023-04-16T13:51:21;11.68;;;6.32;;
20283;SDS011;10301;50.832;4.080;2023-04-16T13:53:47;9.95;;;6.03;;
20283;SDS011;10301;50.832;4.080;2023-04-16T13:56:13;10.55;;;6.13;;
20283;SDS011;10301;50.832;4.080;2023-04-16T13:58:39;10.25;;;5.80;;
20283;SDS011;10301;50.832;4.080;2023-04-16T14:01:05;9.38;;;5.82;;
20283;SDS011;10301;50.832;4.080;2023-04-16T14:03:31;10.85;;;5.65;;
20283;SDS011;10301;50.832;4.080;2023-04-16T14:06:00;11.65;;;5.53;;
20283;SDS011;10301;50.832;4.080;2023-04-16T14:08:29;9.93;;;5.43;;
20283;SDS011;10301;50.832;4.080;2023-04-16T14:10:55;10.98;;;5.50;;
20283;SDS011;10301;50.832;4.080;2023-04-16T14:13:21;11.13;;;5.63;;
20283;SDS011;10301;50.832;4.080;2023-04-16T14:15:47;10.05;;;5.28;;
20283;SDS011;10301;50.832;4.080;2023-04-16T14:18:13;10.02;;;5.15;;
20283;SDS011;10301;50.832;4.080;2023-04-16T14:20:39;10.35;;;5.10;;
20283;SDS011;10301;50.832;4.080;2023-04-16T14:23:04;9.10;;;5.05;;
20283;SDS011;10301;50.832;4.080;2023-04-16T14:25:31;10.57;;;5.05;;
20283;SDS011;10301;50.832;4.080;2023-04-16T14:27:58;9.60;;;4.65;;
20283;SDS011;10301;50.832;4.080;2023-04-16T14:30:24;13.40;;;5.53;;
20283;SDS011;10301;50.832;4.080;2023-04-16T14:32:50;10.00;;;5.78;;
20283;SDS011;10301;50.832;4.080;2023-04-16T14:35:16;11.82;;;5.20;;
20283;SDS011;10301;50.832;4.080;2023-04-16T14:37:42;11.40;;;5.90;;
20283;SDS011;10301;50.832;4.080;2023-04-16T14:40:08;7.75;;;5.07;;
20283;SDS011;10301;50.832;4.080;2023-04-16T14:42:35;12.77;;;6.03;;
20283;SDS011;10301;50.832;4.080;2023-04-16T14:45:01;12.65;;;5.63;;
20283;SDS011;10301;50.832;4.080;2023-04-16T14:47:30;12.70;;;5.95;;